Time;durP1;ratioP1;P1;durP2;ratioP2;P2;SDS_P1;SDS_P2;PMS_P1;PMS_P2;Temp;Humidity;BMP_temperature;BMP_pressure;BME280_temperature;BME280_humidity;BME280_pressure;Samples;Min_cycle;Max_cycle;Signal;HPM_P1;HPM_P2
2021/04/28 00:00:39;;;;;;;3.60;1.42;;;;;;;6.15;46.60;100425.38;5062882;28;20029;-61
2021/04/28 00:03:07;;;;;;;4.03;1.50;;;;;;;6.12;46.83;100422.75;5063165;28;20028;-61
2021/04/28 00:05:34;;;;;;;3.53;1.30;;;;;;;6.08;47.10;100424.44;5061766;28;20021;-61
2021/04/28 00:07:59;;;;;;;4.15;1.50;;;;;;;6.06;47.03;100420.97;5063234;28;20028;-61
2021/04/28 00:10:28;;;;;;;5.40;1.35;;;;;;;6.04;47.05;100417.47;5063041;28;20101;-60
2021/04/28 00:12:53;;;;;;;3.20;1.30;;;;;;;6.02;47.16;100422.59;5063115;28;20025;-61
2021/04/28 00:15:24;;;;;;;2.72;1.38;;;;;;;5.99;47.27;100417.41;5061620;28;20059;-61
2021/04/28 00:17:51;;;;;;;2.78;1.73;;;;;;;5.95;47.53;100416.53;5063260;28;20075;-61
2021/04/28 00:20:18;;;;;;;3.72;1.52;;;;;;;5.95;47.44;100415.66;5063056;28;20024;-61
2021/04/28 00:22:43;;;;;;;5.78;1.58;;;;;;;5.89;47.90;100411.31;5063196;28;20021;-61
2021/04/28 00:25:14;;;;;;;6.82;1.90;;;;;;;5.86;47.95;100406.13;5063365;28;20035;-61
2021/04/28 00:27:39;;;;;;;6.43;1.80;;;;;;;5.85;47.80;100414.69;5063096;28;20048;-61
2021/04/28 00:30:09;;;;;;;7.45;1.63;;;;;;;5.81;47.89;100406.06;5062773;28;20025;-62
2021/04/28 00:32:36;;;;;;;5.05;2.03;;;;;;;5.77;48.15;100408.59;5063343;28;20088;-63
2021/04/28 00:35:03;;;;;;;4.18;2.28;;;;;;;5.72;47.90;100400.81;5062023;28;20405;-62
2021/04/28 00:37:29;;;;;;;4.25;2.20;;;;;;;5.68;48.25;100401.63;5061845;28;20025;-63
2021/04/28 00:39:54;;;;;;;3.70;1.90;;;;;;;5.61;48.37;100399.84;5061483;28;20021;-62
2021/04/28 00:42:20;;;;;;;5.22;1.92;;;;;;;5.59;48.33;100399.81;5061893;28;20060;-62
2021/04/28 00:44:45;;;;;;;7.82;2.35;;;;;;;5.51;48.76;100397.13;5061443;28;20028;-62
2021/04/28 00:47:11;;;;;;;6.55;1.95;;;;;;;5.50;48.75;100397.09;5065614;28;20021;-62
2021/04/28 00:49:36;;;;;;;5.05;2.00;;;;;;;5.42;49.21;100390.16;5065674;28;20024;-62
2021/04/28 00:52:04;;;;;;;3.85;2.00;;;;;;;5.31;49.02;100374.59;5063767;28;20098;-62
2021/04/28 00:54:30;;;;;;;3.80;1.60;;;;;;;5.39;48.92;100390.13;5065820;28;20013;-62
2021/04/28 00:56:57;;;;;;;4.32;1.67;;;;;;;5.35;48.85;100388.38;5065904;28;20029;-63
2021/04/28 00:59:23;;;;;;;4.75;1.73;;;;;;;5.28;49.33;100381.41;5065199;28;20028;-62
2021/04/28 01:01:49;;;;;;;6.72;2.03;;;;;;;5.19;49.86;100380.44;5064116;28;20017;-62
2021/04/28 01:04:15;;;;;;;3.50;1.73;;;;;;;5.16;49.58;100377.81;5064412;28;20092;-63
2021/04/28 01:06:44;;;;;;;3.97;1.40;;;;;;;5.12;49.70;100383.78;5065401;28;20021;-62
2021/04/28 01:09:12;;;;;;;2.05;1.33;;;;;;;5.03;50.57;100384.50;5065485;28;20025;-62
2021/04/28 01:11:37;;;;;;;4.63;1.42;;;;;;;4.96;50.50;100374.97;5065126;28;20021;-62
2021/04/28 01:14:03;;;;;;;4.47;1.95;;;;;;;4.93;50.44;100375.81;5064911;28;20099;-61
2021/04/28 01:16:29;;;;;;;3.75;1.70;;;;;;;4.89;50.33;100374.00;5064989;28;20072;-62
2021/04/28 01:18:55;;;;;;;3.25;1.45;;;;;;;4.86;50.33;100375.69;5064850;28;20032;-62
2021/04/28 01:21:21;;;;;;;2.38;1.33;;;;;;;4.77;51.07;100377.28;5063891;28;20021;-62
2021/04/28 01:23:46;;;;;;;2.83;1.42;;;;;;;4.69;50.80;100360.88;5064867;28;20044;-62
2021/04/28 01:26:12;;;;;;;3.17;1.70;;;;;;;4.64;51.30;100363.38;5064789;28;20194;-62
2021/04/28 01:28:39;;;;;;;3.08;1.50;;;;;;;4.63;51.27;100369.38;5065034;28;20039;-62
2021/04/28 01:31:11;;;;;;;4.80;1.70;;;;;;;4.55;51.35;100360.66;5064741;28;20035;-62
2021/04/28 01:33:40;;;;;;;2.15;1.33;;;;;;;4.49;51.66;100358.00;5064888;28;20017;-62
2021/04/28 01:36:11;;;;;;;6.20;1.70;;;;;;;4.41;51.85;100356.16;5064433;28;20079;-63
2021/04/28 01:38:41;;;;;;;2.97;1.60;;;;;;;4.43;51.61;100369.91;5065018;28;20020;-63
2021/04/28 01:41:08;;;;;;;4.57;1.75;;;;;;;4.38;51.82;100363.81;5064788;28;20337;-62
2021/04/28 01:43:34;;;;;;;3.75;1.52;;;;;;;4.31;52.39;100354.28;5064509;28;20021;-61
2021/04/28 01:46:04;;;;;;;3.78;1.35;;;;;;;4.31;52.58;100355.13;5064184;28;20135;-62
2021/04/28 01:48:30;;;;;;;3.40;1.42;;;;;;;4.29;52.99;100350.81;5064752;28;20021;-61
2021/04/28 01:50:57;;;;;;;3.67;1.58;;;;;;;4.31;52.53;100354.28;5063973;28;20080;-59
2021/04/28 01:53:24;;;;;;;3.95;1.63;;;;;;;4.29;52.54;100345.66;5064244;28;20024;-60
2021/04/28 01:55:54;;;;;;;3.30;1.80;;;;;;;4.25;52.72;100349.88;5064466;28;20035;-60
2021/04/28 01:58:21;;;;;;;2.50;1.40;;;;;;;4.21;53.09;100351.56;5063494;28;20017;-59
2021/04/28 02:00:47;;;;;;;2.17;1.20;;;;;;;4.18;53.16;100348.94;5063902;28;20037;-60
2021/04/28 02:03:13;;;;;;;3.47;1.50;;;;;;;4.07;52.90;100323.03;5064399;28;20025;-61
2021/04/28 02:05:38;;;;;;;2.35;1.40;;;;;;;4.15;52.77;100338.63;5064459;28;20020;-60
2021/04/28 02:08:06;;;;;;;3.65;1.55;;;;;;;4.12;53.01;100330.81;5064088;28;20021;-60
2021/04/28 02:10:32;;;;;;;2.38;1.42;;;;;;;4.08;53.36;100335.06;5063861;28;20089;-60
2021/04/28 02:12:57;;;;;;;2.90;1.42;;;;;;;4.05;53.94;100334.13;5064254;28;20052;-60
2021/04/28 02:15:24;;;;;;;5.95;1.40;;;;;;;4.04;53.41;100322.16;5063922;28;20029;-60
2021/04/28 02:17:57;;;;;;;5.45;1.52;;;;;;;3.98;53.66;100322.88;5063846;28;20489;-59
2021/04/28 02:20:24;;;;;;;3.03;1.45;;;;;;;3.94;53.73;100327.13;5063799;28;20096;-60
2021/04/28 02:22:50;;;;;;;1.83;1.27;;;;;;;3.91;53.74;100328.78;5064119;28;20025;-61
2021/04/28 02:25:16;;;;;;;3.45;1.40;;;;;;;3.87;54.14;100327.84;5064102;28;20081;-61
2021/04/28 02:27:42;;;;;;;4.35;1.50;;;;;;;3.83;54.34;100328.63;5063611;28;20021;-60
2021/04/28 02:30:10;;;;;;;2.88;1.50;;;;;;;3.82;54.16;100324.31;5063631;28;20021;-60
2021/04/28 02:32:36;;;;;;;3.97;2.30;;;;;;;3.79;53.62;100326.81;5064015;28;20030;-61
2021/04/28 02:35:02;;;;;;;4.95;2.40;;;;;;;3.76;53.72;100322.50;5062437;28;20076;-61
2021/04/28 02:37:29;;;;;;;2.10;1.50;;;;;;;3.72;53.89;100323.31;5063773;28;20021;-61
2021/04/28 02:40:05;;;;;;;5.13;2.03;;;;;;;3.64;54.09;100324.84;5063656;28;20017;-61
2021/04/28 02:42:31;;;;;;;4.07;1.90;;;;;;;3.58;54.22;100318.75;5063617;28;20021;-63
2021/04/28 02:44:58;;;;;;;4.60;1.60;;;;;;;3.55;53.96;100322.97;5063266;28;20029;-64
2021/04/28 02:47:27;;;;;;;1.90;1.20;;;;;;;3.46;54.68;100321.09;5063613;28;20365;-62
2021/04/28 02:49:53;;;;;;;5.90;1.58;;;;;;;3.44;54.80;100317.63;5063286;28;20036;-62
2021/04/28 02:52:20;;;;;;;6.85;1.48;;;;;;;3.41;54.72;100322.69;5063611;28;20277;-62
2021/04/28 02:54:46;;;;;;;3.85;2.47;;;;;;;3.38;54.76;100328.66;5063611;28;20456;-62
2021/04/28 02:57:13;;;;;;;3.25;1.80;;;;;;;3.37;54.39;100324.34;5063386;28;20048;-62
2021/04/28 02:59:38;;;;;;;1.83;1.50;;;;;;;3.34;54.62;100326.84;5063070;28;20032;-63
2021/04/28 03:02:06;;;;;;;2.72;1.58;;;;;;;3.32;54.39;100325.97;5063491;28;20534;-62
2021/04/28 03:04:32;;;;;;;4.53;1.83;;;;;;;3.30;54.60;100318.25;5063646;28;20126;-60
2021/04/28 03:06:57;;;;;;;3.17;1.50;;;;;;;3.28;54.44;100317.34;5063028;28;20415;-60
2021/04/28 03:09:23;;;;;;;4.80;1.60;;;;;;;3.24;55.00;100319.81;5062068;28;20040;-60
2021/04/28 03:11:48;;;;;;;3.83;1.58;;;;;;;3.19;54.77;100323.16;5063069;28;20020;-60
2021/04/28 03:14:14;;;;;;;7.57;1.80;;;;;;;3.12;55.57;100322.97;5062896;28;20055;-60
2021/04/28 03:16:40;;;;;;;4.10;1.92;;;;;;;3.10;55.06;100316.13;5063149;28;20029;-60
2021/04/28 03:19:07;;;;;;;8.15;2.15;;;;;;;3.08;55.25;100319.50;5062687;28;20025;-60
2021/04/28 03:21:39;;;;;;;4.07;1.80;;;;;;;3.05;54.95;100316.88;5062717;28;20021;-61
2021/04/28 03:24:04;;;;;;;5.53;2.92;;;;;;;3.02;55.10;100312.53;5063294;28;20059;-60
2021/04/28 03:26:30;;;;;;;4.60;1.98;;;;;;;3.00;55.14;100310.78;5062525;28;20029;-61
2021/04/28 03:28:57;;;;;;;3.05;2.10;;;;;;;2.97;55.29;100315.00;5062544;28;20025;-60
2021/04/28 03:31:22;;;;;;;3.42;1.90;;;;;;;2.97;55.44;100314.16;5062391;28;20020;-60
2021/04/28 03:33:47;;;;;;;3.78;1.90;;;;;;;2.98;55.59;100313.31;5062360;28;20064;-61
2021/04/28 03:36:13;;;;;;;5.18;2.08;;;;;;;3.00;55.84;100310.78;5062573;28;20025;-61
2021/04/28 03:38:38;;;;;;;9.60;2.53;;;;;;;2.98;55.82;100308.16;5062527;28;20028;-60
2021/04/28 03:41:04;;;;;;;3.53;2.08;;;;;;;2.99;55.95;100309.06;5062504;28;20085;-61
2021/04/28 03:43:29;;;;;;;4.95;2.33;;;;;;;3.03;55.85;100308.28;5062785;28;20069;-60
2021/04/28 03:45:54;;;;;;;7.38;2.63;;;;;;;3.06;56.09;100305.75;5062130;28;20032;-61
2021/04/28 03:48:20;;;;;;;3.50;2.13;;;;;;;3.08;56.00;100307.53;5062602;28;20017;-61
2021/04/28 03:50:46;;;;;;;5.88;2.10;;;;;;;3.10;56.09;100303.28;5062043;28;20456;-60
2021/04/28 03:53:11;;;;;;;8.38;2.28;;;;;;;3.12;55.86;100299.88;5062367;28;20021;-60
2021/04/28 03:55:37;;;;;;;3.08;2.00;;;;;;;3.15;56.12;100297.38;5062404;28;20024;-61
2021/04/28 03:58:03;;;;;;;5.25;2.15;;;;;;;3.16;56.39;100302.56;5062350;28;20021;-60
2021/04/28 04:00:28;;;;;;;4.00;2.30;;;;;;;3.20;56.53;100300.91;5060416;28;20035;-62
2021/04/28 04:02:53;;;;;;;5.55;2.30;;;;;;;3.25;56.32;100291.63;5062563;28;20024;-61
2021/04/28 04:05:19;;;;;;;6.72;2.33;;;;;;;3.40;56.56;100295.31;5062374;28;20096;-61
2021/04/28 04:07:44;;;;;;;6.00;2.22;;;;;;;3.58;56.36;100287.97;5062644;28;20028;-62
2021/04/28 04:10:10;;;;;;;5.68;2.60;;;;;;;3.72;56.24;100289.94;5062008;28;20020;-61
2021/04/28 04:12:36;;;;;;;3.40;2.13;;;;;;;3.83;56.17;100288.38;5062238;28;20028;-60
2021/04/28 04:15:02;;;;;;;6.68;2.22;;;;;;;3.85;56.16;100283.28;5061512;28;20088;-61
2021/04/28 04:17:27;;;;;;;4.97;2.30;;;;;;;4.04;56.54;100287.03;5062129;28;20033;-61
2021/04/28 04:19:56;;;;;;;10.15;3.15;;;;;;;4.36;56.81;100283.22;5061890;28;20036;-62
2021/04/28 04:22:21;;;;;;;3.83;1.95;;;;;;;4.74;56.81;100279.50;5066345;28;20170;-60
2021/04/28 04:24:46;;;;;;;6.00;2.03;;;;;;;5.35;56.49;100275.09;5066074;28;20355;-63
2021/04/28 04:27:12;;;;;;;7.28;2.30;;;;;;;6.06;55.32;100277.50;5066185;28;20100;-61
2021/04/28 04:29:37;;;;;;;4.28;2.50;;;;;;;6.76;54.58;100284.84;5065989;28;20037;-61
2021/04/28 04:32:03;;;;;;;6.32;2.45;;;;;;;7.39;53.66;100283.38;5065887;28;20529;-61
2021/04/28 04:34:28;;;;;;;6.47;2.30;;;;;;;8.08;52.87;100274.84;5065812;28;20020;-61
2021/04/28 04:36:53;;;;;;;7.82;2.25;;;;;;;8.77;51.11;100278.22;5065876;28;20051;-62
2021/04/28 04:39:19;;;;;;;6.53;2.10;;;;;;;9.27;49.07;100278.00;5065681;28;20021;-60
2021/04/28 04:41:44;;;;;;;5.75;2.22;;;;;;;9.32;47.80;100284.03;5065715;28;20048;-60
2021/04/28 04:44:10;;;;;;;5.20;2.00;;;;;;;9.71;48.39;100276.03;5065634;28;20067;-60
2021/04/28 04:46:35;;;;;;;8.25;2.22;;;;;;;10.33;47.53;100278.97;5065436;28;20049;-61
2021/04/28 04:49:00;;;;;;;4.72;1.85;;;;;;;10.96;45.89;100276.63;5065671;28;20520;-61
2021/04/28 04:51:26;;;;;;;12.55;2.50;;;;;;;11.64;44.78;100280.91;5065525;28;20048;-60
2021/04/28 04:53:54;;;;;;;15.80;2.25;;;;;;;12.44;43.18;100276.19;5065462;28;20029;-61
2021/04/28 04:56:20;;;;;;;7.63;2.47;;;;;;;13.30;41.35;100282.28;5065560;28;20021;-61
2021/04/28 04:58:45;;;;;;;6.13;2.05;;;;;;;13.84;40.38;100282.84;5065555;28;20017;-62
2021/04/28 05:01:11;;;;;;;10.07;2.13;;;;;;;14.27;39.09;100283.53;5064926;28;20051;-62
2021/04/28 05:03:36;;;;;;;9.48;2.28;;;;;;;14.60;37.81;100277.47;5065386;28;20024;-61
2021/04/28 05:06:01;;;;;;;7.40;2.55;;;;;;;15.03;36.63;100293.69;5065421;28;20028;-62
2021/04/28 05:08:27;;;;;;;7.13;2.45;;;;;;;15.14;35.91;100282.94;5064043;28;20021;-60
2021/04/28 05:10:53;;;;;;;6.63;2.40;;;;;;;15.01;34.82;100290.28;5065300;28;20025;-61
2021/04/28 05:13:19;;;;;;;6.68;2.72;;;;;;;14.96;35.03;100279.09;5065101;28;20240;-62
2021/04/28 05:15:44;;;;;;;6.00;2.08;;;;;;;15.24;34.80;100286.13;5065295;28;20028;-68
2021/04/28 05:18:09;;;;;;;7.05;2.15;;;;;;;15.51;34.23;100282.72;5065261;28;20036;-61
2021/04/28 05:20:35;;;;;;;4.95;2.10;;;;;;;15.41;33.70;100279.53;5064811;28;20200;-62
2021/04/28 05:23:00;;;;;;;9.85;2.53;;;;;;;15.23;33.58;100287.91;5065129;28;20439;-63
2021/04/28 05:25:25;;;;;;;9.25;2.22;;;;;;;15.30;33.05;100285.97;5065227;28;20562;-63
2021/04/28 05:27:51;;;;;;;6.22;2.20;;;;;;;15.29;32.40;100276.38;5064819;28;20029;-63
2021/04/28 05:30:17;;;;;;;6.20;1.40;;;;;;;15.16;32.47;100281.13;5064474;28;20017;-62
2021/04/28 05:32:43;;;;;;;3.28;1.58;;;;;;;14.82;31.78;100282.13;5063616;28;20080;-62
2021/04/28 05:35:09;;;;;;;3.65;1.50;;;;;;;14.44;32.15;100272.63;5064842;28;20032;-63
2021/04/28 05:37:35;;;;;;;2.30;1.40;;;;;;;14.04;32.83;100278.91;5064962;28;20025;-62
2021/04/28 05:40:01;;;;;;;5.97;1.75;;;;;;;14.00;32.77;100272.88;5064761;28;20064;-63
2021/04/28 05:42:26;;;;;;;4.63;1.67;;;;;;;13.92;33.40;100275.69;5063517;28;20028;-63
2021/04/28 05:44:52;;;;;;;5.30;1.48;;;;;;;14.27;33.41;100280.91;5064363;28;20305;-65
2021/04/28 05:47:18;;;;;;;3.75;1.52;;;;;;;14.53;33.36;100274.16;5064082;28;20048;-61
2021/04/28 05:49:44;;;;;;;6.20;1.55;;;;;;;15.18;32.92;100276.72;5064811;28;20072;-63
2021/04/28 05:52:09;;;;;;;8.25;1.83;;;;;;;15.68;32.00;100288.28;5064493;28;20041;-61
2021/04/28 05:54:35;;;;;;;5.25;2.00;;;;;;;16.13;31.21;100277.28;5064617;28;20025;-62
2021/04/28 05:57:02;;;;;;;1.80;1.05;;;;;;;16.08;29.90;100275.69;5064544;28;20020;-65
2021/04/28 05:59:27;;;;;;;2.47;1.20;;;;;;;15.84;29.86;100288.66;5064361;28;20109;-65
2021/04/28 06:01:53;;;;;;;2.72;1.25;;;;;;;15.38;29.46;100279.63;5064526;28;20059;-65
2021/04/28 06:04:18;;;;;;;2.58;1.20;;;;;;;14.94;30.22;100286.97;5064115;28;20066;-61
2021/04/28 06:06:43;;;;;;;3.50;1.40;;;;;;;14.77;30.66;100273.50;5064380;28;20025;-61
2021/04/28 06:09:09;;;;;;;5.00;1.33;;;;;;;14.68;30.50;100278.09;5063260;28;20021;-62
2021/04/28 06:11:35;;;;;;;3.35;1.20;;;;;;;14.18;30.56;100276.81;5064215;28;20036;-62
2021/04/28 06:14:00;;;;;;;3.53;1.08;;;;;;;13.87;31.32;100283.63;5064207;28;20032;-62
2021/04/28 06:16:26;;;;;;;5.15;1.60;;;;;;;13.72;31.89;100284.00;5064046;28;20029;-61
2021/04/28 06:18:51;;;;;;;3.03;1.55;;;;;;;13.80;32.05;100281.22;5063883;28;20025;-63
2021/04/28 06:21:17;;;;;;;3.00;1.23;;;;;;;13.79;31.85;100280.34;5064023;28;20025;-63
2021/04/28 06:23:43;;;;;;;2.95;1.27;;;;;;;13.69;31.71;100281.47;5064255;28;20355;-63
2021/04/28 06:26:08;;;;;;;3.17;1.42;;;;;;;13.73;31.87;100285.72;5064037;28;20028;-63
2021/04/28 06:28:33;;;;;;;2.67;1.30;;;;;;;13.61;31.43;100282.50;5063925;28;20533;-62
2021/04/28 06:30:59;;;;;;;1.85;1.40;;;;;;;13.54;32.03;100273.09;5063473;28;20043;-62
2021/04/28 06:33:25;;;;;;;5.57;1.70;;;;;;;13.59;31.51;100271.25;5064202;28;20032;-62
2021/04/28 06:35:50;;;;;;;4.70;2.20;;;;;;;13.54;31.68;100274.84;5063917;28;20420;-63
2021/04/28 06:38:16;;;;;;;4.50;1.65;;;;;;;13.62;31.83;100283.34;5063617;28;20037;-61
2021/04/28 06:40:41;;;;;;;5.00;1.45;;;;;;;13.72;31.61;100278.78;5063712;28;20032;-62
2021/04/28 06:43:07;;;;;;;7.93;2.20;;;;;;;13.89;31.79;100275.78;5063657;28;20017;-62
2021/04/28 06:45:35;;;;;;;3.08;1.70;;;;;;;14.16;32.05;100278.59;5063305;28;20270;-63
2021/04/28 06:48:00;;;;;;;4.82;1.50;;;;;;;14.89;31.57;100280.19;5063804;28;20059;-63
2021/04/28 06:50:26;;;;;;;9.93;1.60;;;;;;;15.49;30.30;100282.78;5063260;28;20029;-63
2021/04/28 06:52:51;;;;;;;4.30;1.20;;;;;;;16.17;29.49;100273.66;5063589;28;20203;-63
2021/04/28 06:55:17;;;;;;;3.03;1.30;;;;;;;16.77;28.38;100273.31;5063166;28;20032;-62
2021/04/28 06:57:42;;;;;;;4.93;1.50;;;;;;;17.14;28.14;100280.75;5063413;28;20090;-63
2021/04/28 07:00:08;;;;;;;4.97;0.90;;;;;;;17.65;26.38;100280.53;5063043;28;20021;-62
2021/04/28 07:02:33;;;;;;;2.67;1.10;;;;;;;17.91;25.70;100278.59;5063322;28;20025;-62
2021/04/28 07:04:58;;;;;;;3.70;1.10;;;;;;;18.11;25.79;100271.69;5063040;28;20041;-62
2021/04/28 07:07:26;;;;;;;5.65;1.15;;;;;;;18.55;25.53;100276.81;5063423;28;20067;-62
2021/04/28 07:09:51;;;;;;;4.22;1.25;;;;;;;18.94;25.12;100279.50;5063614;28;20013;-63
2021/04/28 07:12:17;;;;;;;4.07;1.33;;;;;;;19.09;24.67;100277.97;5063044;28;20029;-63
2021/04/28 07:14:43;;;;;;;4.38;1.40;;;;;;;19.28;24.01;100271.84;5063047;28;20076;-63
2021/04/28 07:17:09;;;;;;;3.80;1.27;;;;;;;19.13;24.39;100270.78;5063104;28;20032;-63
2021/04/28 07:19:35;;;;;;;4.00;1.23;;;;;;;19.12;24.48;100269.91;5063032;28;20097;-61
2021/04/28 07:22:03;;;;;;;3.75;1.15;;;;;;;19.29;24.11;100269.16;5062825;28;20067;-61
2021/04/28 07:24:28;;;;;;;3.33;1.20;;;;;;;19.54;23.78;100270.59;5062966;28;20457;-61
2021/04/28 07:26:54;;;;;;;2.60;1.15;;;;;;;19.80;23.71;100264.97;5063093;28;20029;-62
2021/04/28 07:29:20;;;;;;;3.08;1.20;;;;;;;20.27;23.19;100262.69;5062466;28;20016;-61
2021/04/28 07:31:46;;;;;;;2.25;1.00;;;;;;;20.17;22.70;100259.66;5062538;28;20028;-62
2021/04/28 07:34:39;;;;;;;3.63;1.10;;;;;;;20.29;22.99;100259.03;5063201;28;20111;-63
2021/04/28 07:37:08;;;;;;;2.65;1.30;;;;;;;20.19;22.64;100260.47;5062969;28;20039;-64
2021/04/28 07:39:41;;;;;;;6.30;1.23;;;;;;;20.08;22.79;100268.06;5063308;28;20024;-64
2021/04/28 07:42:14;;;;;;;2.55;1.10;;;;;;;19.84;22.66;100258.63;5063057;28;20210;-63
2021/04/28 07:44:49;;;;;;;5.90;1.63;;;;;;;19.59;22.81;100253.72;5062867;28;20020;-70
2021/04/28 07:47:51;;;;;;;7.63;1.45;;;;;;;20.56;22.83;100255.03;5062834;28;20020;-71
2021/04/28 07:50:18;;;;;;;2.67;1.15;;;;;;;21.53;21.25;100248.00;5057368;28;20036;-65
2021/04/28 07:52:54;;;;;;;2.78;1.13;;;;;;;21.65;21.09;100248.25;5061825;28;20037;-64
2021/04/28 07:55:19;;;;;;;4.78;1.20;;;;;;;21.56;20.76;100236.44;5061640;28;20029;-64
2021/04/28 07:57:45;;;;;;;3.95;1.83;;;;;;;21.30;20.85;100237.00;5063135;28;20428;-65
2021/04/28 08:00:13;;;;;;;3.78;1.30;;;;;;;20.31;21.13;100259.81;5062540;28;20020;-64
2021/04/28 08:02:41;;;;;;;4.13;2.03;;;;;;;19.49;21.98;100262.06;5061839;28;20039;-64
2021/04/28 08:05:08;;;;;;;1.65;1.00;;;;;;;18.45;22.98;100246.63;5063270;28;20021;-63
2021/04/28 08:07:37;;;;;;;3.45;1.23;;;;;;;18.10;24.03;100260.31;5061870;28;20035;-64
2021/04/28 08:10:07;;;;;;;3.13;1.20;;;;;;;18.08;24.13;100263.00;5063138;28;20017;-64
2021/04/28 08:12:33;;;;;;;3.47;1.27;;;;;;;18.37;23.99;100256.59;5062780;28;20021;-64
2021/04/28 08:14:58;;;;;;;3.28;1.10;;;;;;;18.73;23.83;100253.25;5062471;28;20028;-64
2021/04/28 08:17:24;;;;;;;4.32;1.40;;;;;;;18.93;23.15;100256.78;5094955;28;20218;-65
2021/04/28 08:19:52;;;;;;;2.90;1.30;;;;;;;19.04;23.15;100261.53;5062584;28;20024;-63
2021/04/28 08:22:18;;;;;;;5.15;1.10;;;;;;;19.30;22.89;100265.59;5062673;28;20386;-65
2021/04/28 08:24:43;;;;;;;1.50;1.00;;;;;;;19.47;22.58;100252.53;5062543;28;20573;-64
2021/04/28 08:27:12;;;;;;;2.65;1.10;;;;;;;19.69;22.30;100258.47;5061435;28;20025;-64
2021/04/28 08:29:41;;;;;;;2.15;1.00;;;;;;;19.98;22.05;100254.44;5062296;28;20025;-64
2021/04/28 08:32:07;;;;;;;3.13;0.98;;;;;;;20.00;21.45;100255.25;5060918;28;20029;-64
2021/04/28 08:34:33;;;;;;;2.05;1.10;;;;;;;19.97;21.58;100266.75;5062464;28;20108;-63
2021/04/28 08:36:58;;;;;;;2.67;1.20;;;;;;;20.00;21.39;100250.81;5062761;28;20033;-64
2021/04/28 08:39:24;;;;;;;2.88;1.10;;;;;;;20.41;21.28;100259.34;5094658;28;20047;-64
2021/04/28 08:41:51;;;;;;;7.32;1.08;;;;;;;20.59;20.54;100248.75;5060867;28;20012;-64
2021/04/28 08:44:19;;;;;;;1.55;0.98;;;;;;;20.53;20.12;100252.53;5061098;28;20029;-63
2021/04/28 08:46:47;;;;;;;2.78;1.10;;;;;;;20.51;20.15;100257.91;5060916;28;20040;-65
2021/04/28 08:49:13;;;;;;;2.15;1.00;;;;;;;20.68;19.97;100253.53;5062202;28;20131;-65
2021/04/28 08:51:39;;;;;;;2.67;1.00;;;;;;;20.72;19.72;100259.50;5061890;28;20103;-64
2021/04/28 08:54:08;;;;;;;4.40;1.23;;;;;;;20.67;19.71;100259.75;5094928;28;20115;-64
2021/04/28 08:56:37;;;;;;;1.67;0.88;;;;;;;20.86;20.07;100253.47;5044677;28;20103;-65
2021/04/28 08:59:05;;;;;;;2.28;1.30;;;;;;;20.87;19.58;100257.81;5061044;28;20023;-63
2021/04/28 09:01:35;;;;;;;2.65;1.17;;;;;;;20.80;20.21;100255.50;5061894;28;20577;-63
2021/04/28 09:04:11;;;;;;;1.58;0.98;;;;;;;20.96;20.01;100244.13;5062430;28;20054;-64
2021/04/28 09:06:37;;;;;;;2.08;1.02;;;;;;;20.86;19.80;100256.13;5061971;28;20039;-63
2021/04/28 09:09:06;;;;;;;2.17;1.10;;;;;;;20.96;19.76;100256.50;5066093;28;20274;-65
2021/04/28 09:11:59;;;;;;;2.75;1.10;;;;;;;20.87;19.56;100247.25;5066012;28;20025;-64
2021/04/28 09:14:27;;;;;;;2.35;1.17;;;;;;;21.08;19.56;100254.97;5062661;28;20036;-62
2021/04/28 09:17:05;;;;;;;27.02;2.95;;;;;;;21.29;19.57;100248.47;5064628;28;20028;-64
2021/04/28 09:19:41;;;;;;;2.25;0.90;;;;;;;21.79;18.80;100256.25;5064354;28;20020;-64
2021/04/28 09:22:14;;;;;;;1.73;0.82;;;;;;;21.92;18.62;100258.19;5065522;28;20033;-63
2021/04/28 09:24:48;;;;;;;2.50;1.25;;;;;;;21.76;18.96;100253.78;5064264;28;20021;-64
2021/04/28 09:27:41;;;;;;;4.30;1.15;;;;;;;21.98;18.70;100247.25;5064359;28;20024;-64
2021/04/28 09:30:26;;;;;;;2.38;0.98;;;;;;;22.06;17.97;100245.97;5065097;28;20051;-64
2021/04/28 09:33:03;;;;;;;4.25;0.85;;;;;;;22.04;18.07;100240.75;5065535;28;20025;-65
2021/04/28 09:35:29;;;;;;;2.42;0.90;;;;;;;22.09;17.60;100249.28;5065418;28;20108;-63
2021/04/28 09:37:56;;;;;;;2.28;0.80;;;;;;;21.85;18.15;100248.94;5064836;28;20075;-63
2021/04/28 09:40:39;;;;;;;5.97;1.15;;;;;;;21.62;18.15;100248.44;5064603;28;20505;-65
2021/04/28 09:43:05;;;;;;;2.83;0.80;;;;;;;21.57;18.42;100253.97;5065310;28;20035;-60
2021/04/28 09:45:43;;;;;;;5.75;0.82;;;;;;;21.60;17.95;100258.25;5064746;28;20108;-59
2021/04/28 09:48:17;;;;;;;2.78;0.80;;;;;;;21.50;17.56;100247.38;5064589;28;20059;-67
2021/04/28 09:50:42;;;;;;;2.10;0.80;;;;;;;21.45;17.73;100239.69;5064640;28;20168;-64
2021/04/28 09:53:08;;;;;;;2.22;0.90;;;;;;;21.61;17.50;100252.03;5064590;28;20025;-65
2021/04/28 09:55:45;;;;;;;1.88;0.70;;;;;;;21.74;16.67;100242.44;5064801;28;20017;-63
2021/04/28 09:58:13;;;;;;;2.08;0.95;;;;;;;21.64;16.60;100250.06;5063222;28;20334;-64
2021/04/28 10:00:38;;;;;;;2.63;0.80;;;;;;;21.48;16.94;100244.81;5062734;28;20024;-63
2021/04/28 10:03:07;;;;;;;1.50;0.65;;;;;;;21.58;17.49;100239.81;5064649;28;20021;-59
2021/04/28 10:05:36;;;;;;;1.60;0.70;;;;;;;21.59;17.60;100243.31;5064301;28;20052;-58
2021/04/28 10:08:13;;;;;;;0.98;0.60;;;;;;;21.63;18.03;100247.50;5064783;28;20082;-69
2021/04/28 10:10:40;;;;;;;1.77;0.80;;;;;;;22.09;17.35;100243.13;5063805;28;20029;-68
2021/04/28 10:13:06;;;;;;;1.40;0.80;;;;;;;22.11;16.48;100238.59;5063454;28;20366;-73
2021/04/28 10:15:33;;;;;;;2.67;1.10;;;;;;;21.79;16.51;100244.84;5063591;28;20048;-67
2021/04/28 10:18:07;;;;;;;1.80;0.80;;;;;;;21.63;16.73;100244.88;5063768;28;20029;-67
2021/04/28 10:20:34;;;;;;;2.55;0.90;;;;;;;21.63;16.36;100236.94;5064138;28;20025;-67
2021/04/28 10:23:05;;;;;;;1.50;0.80;;;;;;;21.34;17.50;100234.19;5064398;28;20487;-67
2021/04/28 10:25:31;;;;;;;3.08;1.05;;;;;;;21.16;17.35;100235.13;5064383;28;20089;-67
2021/04/28 10:27:58;;;;;;;1.42;0.80;;;;;;;20.98;16.96;100230.84;5063881;28;20021;-67
2021/04/28 10:30:24;;;;;;;2.42;0.82;;;;;;;21.21;17.31;100226.97;5063699;28;20021;-66
2021/04/28 10:32:51;;;;;;;5.43;1.00;;;;;;;21.19;17.01;100226.19;5064582;28;20036;-67
2021/04/28 10:35:19;;;;;;;5.20;1.00;;;;;;;21.18;18.05;100229.78;5063971;28;20419;-67
2021/04/28 10:37:51;;;;;;;1.60;0.73;;;;;;;21.11;18.88;100231.03;5063919;28;20024;-62
2021/04/28 10:40:19;;;;;;;1.42;0.70;;;;;;;21.22;18.30;100226.00;5063778;28;20389;-62
2021/04/28 10:42:45;;;;;;;2.13;0.93;;;;;;;21.05;17.82;100234.88;5063936;28;20474;-62
2021/04/28 10:45:11;;;;;;;1.77;0.82;;;;;;;20.92;18.19;100230.28;5063245;28;20200;-62
2021/04/28 10:47:40;;;;;;;3.20;0.90;;;;;;;20.87;19.38;100223.50;5063938;28;20029;-65
2021/04/28 10:50:24;;;;;;;1.85;1.00;;;;;;;20.71;19.92;100213.78;5063661;28;20021;-66
2021/04/28 10:53:07;;;;;;;3.95;1.30;;;;;;;20.72;19.98;100223.41;5064068;28;20040;-66
2021/04/28 10:55:55;;;;;;;11.23;1.75;;;;;;;20.68;20.29;100233.28;5063594;28;20029;-61
2021/04/28 10:58:28;;;;;;;1.88;0.82;;;;;;;20.37;18.94;100215.59;5061915;28;20093;-61
2021/04/28 11:01:00;;;;;;;2.28;1.00;;;;;;;20.26;19.99;100219.66;5063161;28;20055;-61
2021/04/28 11:03:29;;;;;;;3.05;1.00;;;;;;;20.03;20.04;100223.50;5063482;28;20025;-62
2021/04/28 11:05:55;;;;;;;3.13;1.00;;;;;;;19.53;20.61;100218.88;5063051;28;20089;-62
2021/04/28 11:08:30;;;;;;;2.83;1.17;;;;;;;19.38;20.34;100223.09;5063175;28;20025;-62
2021/04/28 11:10:56;;;;;;;2.80;1.08;;;;;;;19.33;19.98;100214.56;5061562;28;20021;-62
2021/04/28 11:13:21;;;;;;;3.55;1.25;;;;;;;19.16;20.91;100225.91;5062984;28;20029;-61
2021/04/28 11:15:53;;;;;;;1.98;0.95;;;;;;;19.23;20.28;100213.31;5062706;28;20017;-61
2021/04/28 11:18:36;;;;;;;1.00;0.90;;;;;;;19.25;21.13;100216.75;5063010;28;20457;-60
2021/04/28 11:21:16;;;;;;;4.25;1.10;;;;;;;19.24;21.74;100221.13;5063134;28;20125;-61
2021/04/28 11:24:04;;;;;;;3.20;0.90;;;;;;;18.18;23.23;100205.69;5061499;28;20025;-61
2021/04/28 11:26:30;;;;;;;2.05;1.13;;;;;;;17.13;24.76;100210.84;5063225;28;20025;-67
2021/04/28 11:28:56;;;;;;;2.35;0.93;;;;;;;16.27;26.05;100201.72;5063085;28;20028;-67
2021/04/28 11:31:42;;;;;;;4.55;1.08;;;;;;;15.55;25.44;100204.09;5061833;28;20025;-65